Time;durP1;ratioP1;P1;durP2;ratioP2;P2;SDS_P1;SDS_P2;PMS_P1;PMS_P2;Temp;Humidity;BMP_temperature;BMP_pressure;BME280_temperature;BME280_humidity;BME280_pressure;Samples;Min_cycle;Max_cycle;Signal;HPM_P1;HPM_P2
2022/10/31 00:01:03;;;;;;;3.73;2.20;;;11.70;99.90;;;;;;4980416;28;20242;-84
2022/10/31 00:03:36;;;;;;;4.60;2.00;;;11.70;99.90;;;;;;4975240;28;20207;-84
2022/10/31 00:06:08;;;;;;;3.67;2.07;;;11.70;99.90;;;;;;4975135;28;20679;-85
2022/10/31 00:08:39;;;;;;;3.40;1.90;;;11.70;99.90;;;;;;4987696;28;20235;-84
2022/10/31 00:11:12;;;;;;;2.53;1.83;;;11.80;99.90;;;;;;4995641;28;20216;-85
2022/10/31 00:13:43;;;;;;;2.27;1.93;;;11.80;99.90;;;;;;4994480;28;20209;-84
2022/10/31 00:16:20;;;;;;;3.37;2.10;;;11.80;99.90;;;;;;4995526;28;20689;-85
2022/10/31 00:18:54;;;;;;;4.07;1.83;;;11.80;99.90;;;;;;5011762;28;20209;-85
2022/10/31 00:21:27;;;;;;;2.90;1.63;;;11.80;99.90;;;;;;5014936;28;20233;-84
2022/10/31 00:23:59;;;;;;;3.73;1.90;;;11.80;99.90;;;;;;5013976;28;20216;-85
2022/10/31 00:26:30;;;;;;;2.57;1.70;;;11.90;99.90;;;;;;5014639;28;20204;-84
2022/10/31 00:29:02;;;;;;;3.97;1.77;;;11.90;99.90;;;;;;5014878;28;20236;-86
2022/10/31 00:31:33;;;;;;;3.63;1.60;;;11.90;99.90;;;;;;4995571;28;21094;-85
2022/10/31 00:34:06;;;;;;;2.50;1.60;;;12.00;99.90;;;;;;4994111;28;20217;-85
2022/10/31 00:36:37;;;;;;;1.20;1.10;;;12.00;99.90;;;;;;4995932;28;20222;-85
2022/10/31 00:39:08;;;;;;;2.67;1.50;;;12.10;99.90;;;;;;4994729;28;20210;-86
2022/10/31 00:41:38;;;;;;;3.47;1.80;;;12.10;99.90;;;;;;4995221;28;20261;-84
2022/10/31 00:44:10;;;;;;;4.03;1.50;;;12.10;99.90;;;;;;4994451;28;20206;-85
2022/10/31 00:46:40;;;;;;;3.17;1.70;;;12.10;99.90;;;;;;4995553;28;20217;-84
2022/10/31 00:49:13;;;;;;;2.93;1.73;;;12.20;99.90;;;;;;4994980;28;20213;-85
2022/10/31 00:51:45;;;;;;;3.30;1.70;;;12.20;99.90;;;;;;4994750;28;20206;-85
2022/10/31 00:54:16;;;;;;;2.30;1.33;;;12.30;99.90;;;;;;4994252;28;20579;-84
2022/10/31 00:56:47;;;;;;;3.70;1.50;;;12.40;99.90;;;;;;4994161;28;20586;-85
2022/10/31 00:59:18;;;;;;;4.00;1.43;;;12.50;99.90;;;;;;4995197;28;20198;-84
2022/10/31 01:01:49;;;;;;;1.63;1.20;;;12.50;99.90;;;;;;4994314;28;20234;-84
2022/10/31 01:04:24;;;;;;;2.80;1.23;;;12.50;99.90;;;;;;4994481;28;20213;-85
2022/10/31 01:06:55;;;;;;;1.37;1.27;;;12.60;99.90;;;;;;4994533;28;20309;-84
2022/10/31 01:09:26;;;;;;;1.40;1.10;;;12.60;99.90;;;;;;4985744;28;20218;-83
2022/10/31 01:11:57;;;;;;;1.93;1.20;;;12.70;99.90;;;;;;4974063;28;20214;-85
2022/10/31 01:14:29;;;;;;;2.73;1.30;;;12.70;99.90;;;;;;4977499;28;20329;-84
2022/10/31 01:17:00;;;;;;;3.07;1.37;;;12.60;99.90;;;;;;4974928;28;20207;-86
2022/10/31 01:19:33;;;;;;;1.97;1.27;;;12.60;99.90;;;;;;4975674;28;20249;-85
2022/10/31 01:22:04;;;;;;;1.40;1.00;;;12.60;99.90;;;;;;4975771;28;20722;-84
2022/10/31 01:24:35;;;;;;;2.83;1.20;;;12.60;99.90;;;;;;4977303;28;20207;-84
2022/10/31 01:27:07;;;;;;;2.10;1.40;;;12.60;99.90;;;;;;4977642;28;20652;-86
2022/10/31 01:29:38;;;;;;;2.40;1.30;;;12.50;99.90;;;;;;4974822;28;20213;-85
2022/10/31 01:32:09;;;;;;;5.27;1.27;;;12.50;99.90;;;;;;4976613;28;20207;-85
2022/10/31 01:34:42;;;;;;;2.90;1.40;;;12.50;99.90;;;;;;4976641;28;20218;-84
2022/10/31 01:37:13;;;;;;;1.93;1.20;;;12.50;99.90;;;;;;4974632;28;20202;-86
2022/10/31 01:39:44;;;;;;;2.47;1.23;;;12.50;99.90;;;;;;4985682;28;20219;-85
2022/10/31 01:42:20;;;;;;;1.60;1.30;;;12.50;99.90;;;;;;4993331;28;20537;-85
2022/10/31 01:44:59;;;;;;;1.77;1.20;;;12.50;99.90;;;;;;4993902;28;20206;-85
2022/10/31 01:47:44;;;;;;;2.30;1.37;;;12.50;99.90;;;;;;4993584;28;20202;-85
2022/10/31 01:50:35;;;;;;;2.17;1.03;;;12.50;99.90;;;;;;4994099;28;20297;-85
2022/10/31 01:53:09;;;;;;;1.77;1.13;;;12.50;99.90;;;;;;4992991;28;20911;-84
2022/10/31 01:55:44;;;;;;;1.80;1.20;;;12.50;99.90;;;;;;4993475;28;20221;-85
2022/10/31 01:58:18;;;;;;;2.30;1.23;;;12.50;99.90;;;;;;4993510;28;20209;-85
2022/10/31 02:00:53;;;;;;;2.57;1.20;;;12.60;99.90;;;;;;4993496;28;20241;-84
2022/10/31 02:03:25;;;;;;;2.30;1.40;;;12.60;99.90;;;;;;4992601;28;20284;-84
2022/10/31 02:06:00;;;;;;;2.77;1.20;;;12.60;99.90;;;;;;4993434;28;20232;-85
2022/10/31 02:08:33;;;;;;;2.27;1.20;;;12.60;99.90;;;;;;4992555;28;20226;-84
2022/10/31 02:11:04;;;;;;;1.13;0.90;;;12.60;99.90;;;;;;5005945;28;20213;-85
2022/10/31 02:13:36;;;;;;;2.37;1.40;;;12.60;99.90;;;;;;5012687;28;20214;-85
2022/10/31 02:16:08;;;;;;;2.23;1.37;;;12.60;99.90;;;;;;5011506;28;20569;-83
2022/10/31 02:18:40;;;;;;;3.53;1.20;;;12.60;99.90;;;;;;5012972;28;20210;-82
2022/10/31 02:21:20;;;;;;;2.47;1.37;;;12.70;99.90;;;;;;5012843;28;20241;-83
2022/10/31 02:24:29;;;;;;;2.17;1.13;;;12.70;99.90;;;;;;5012238;28;20291;-85
2022/10/31 02:27:20;;;;;;;1.60;1.17;;;12.60;99.90;;;;;;4998189;28;20205;-84
2022/10/31 02:30:08;;;;;;;3.37;1.20;;;12.60;99.90;;;;;;5008950;28;20301;-84
2022/10/31 02:32:54;;;;;;;2.17;1.47;;;12.60;99.90;;;;;;4992335;28;20305;-85
2022/10/31 02:35:43;;;;;;;1.33;1.10;;;12.60;99.90;;;;;;4993484;28;20218;-85
2022/10/31 02:38:31;;;;;;;3.00;1.70;;;12.50;99.90;;;;;;4999134;28;20206;-85
2022/10/31 02:41:12;;;;;;;1.23;1.03;;;12.50;99.90;;;;;;4974475;28;20211;-84
2022/10/31 02:43:48;;;;;;;1.73;1.20;;;12.40;99.90;;;;;;4976102;28;20234;-83
2022/10/31 02:46:26;;;;;;;1.50;1.27;;;12.40;99.90;;;;;;4974510;28;20561;-85
2022/10/31 02:49:04;;;;;;;2.00;1.30;;;12.40;99.90;;;;;;4979890;28;20547;-85
2022/10/31 02:51:35;;;;;;;4.23;1.60;;;12.30;99.90;;;;;;4974415;28;20206;-84
2022/10/31 02:54:07;;;;;;;2.13;1.30;;;12.30;99.90;;;;;;4973472;28;20519;-84
2022/10/31 02:56:38;;;;;;;2.80;1.30;;;12.20;99.90;;;;;;4974560;28;20271;-85
2022/10/31 02:59:09;;;;;;;3.73;1.60;;;12.20;99.90;;;;;;4973462;28;20245;-84
2022/10/31 03:02:07;;;;;;;2.50;1.30;;;12.20;99.90;;;;;;4973280;28;20207;-84
2022/10/31 03:05:01;;;;;;;1.63;1.40;;;12.20;99.90;;;;;;4972377;28;20254;-85
2022/10/31 03:07:39;;;;;;;2.73;1.20;;;12.20;99.90;;;;;;4972607;28;20676;-84
2022/10/31 03:10:19;;;;;;;2.47;1.43;;;12.20;99.90;;;;;;4989142;28;20206;-85
2022/10/31 03:13:00;;;;;;;2.77;1.83;;;12.20;99.90;;;;;;4991368;28;20210;-85
2022/10/31 03:15:34;;;;;;;1.50;1.07;;;12.20;99.90;;;;;;4993977;28;20214;-85
2022/10/31 03:18:09;;;;;;;3.30;1.47;;;12.10;99.90;;;;;;4993909;28;20203;-84
2022/10/31 03:20:45;;;;;;;2.43;1.50;;;12.10;99.90;;;;;;4995419;28;20659;-84
2022/10/31 03:23:19;;;;;;;2.40;1.70;;;12.00;99.90;;;;;;4998746;28;20241;-84
2022/10/31 03:25:53;;;;;;;1.60;1.50;;;12.00;99.90;;;;;;5000959;28;20230;-84
2022/10/31 03:28:29;;;;;;;2.50;1.70;;;11.90;99.90;;;;;;5013986;28;20230;-84
2022/10/31 03:31:02;;;;;;;4.00;1.60;;;12.00;99.90;;;;;;5012113;28;20214;-86
2022/10/31 03:33:39;;;;;;;2.07;1.50;;;12.00;99.90;;;;;;5009324;28;20213;-85
2022/10/31 03:36:16;;;;;;;4.00;1.60;;;12.00;99.90;;;;;;4997461;28;20194;-85
2022/10/31 03:38:49;;;;;;;2.13;1.27;;;11.90;99.90;;;;;;4997727;28;20671;-86
2022/10/31 03:41:25;;;;;;;3.10;2.20;;;11.90;99.90;;;;;;4999034;28;20214;-84
2022/10/31 03:44:00;;;;;;;2.17;1.27;;;11.90;99.90;;;;;;4995771;28;20225;-85
2022/10/31 03:46:31;;;;;;;2.53;1.67;;;11.90;99.90;;;;;;4998207;28;20220;-85
2022/10/31 03:49:03;;;;;;;2.63;1.43;;;11.90;99.90;;;;;;4996467;28;20207;-84
2022/10/31 03:51:44;;;;;;;2.27;1.60;;;11.90;99.90;;;;;;5000454;28;20210;-84
2022/10/31 03:54:22;;;;;;;2.90;1.63;;;11.90;99.90;;;;;;4995767;28;20608;-86
2022/10/31 03:56:57;;;;;;;3.07;1.43;;;11.90;99.90;;;;;;4999007;28;20217;-85
2022/10/31 03:59:33;;;;;;;1.53;1.30;;;11.90;99.90;;;;;;4996647;28;20214;-86
2022/10/31 04:02:08;;;;;;;2.27;1.50;;;11.90;99.90;;;;;;4975648;28;20214;-86
2022/10/31 04:04:40;;;;;;;1.77;1.53;;;11.90;99.90;;;;;;4976140;28;20235;-85
2022/10/31 04:07:14;;;;;;;3.07;1.97;;;11.90;99.90;;;;;;4976603;28;20207;-85
2022/10/31 04:09:50;;;;;;;2.83;1.40;;;11.80;99.90;;;;;;4976257;28;20233;-85
2022/10/31 04:12:24;;;;;;;2.20;1.60;;;11.80;99.90;;;;;;4973940;28;20667;-84
2022/10/31 04:14:56;;;;;;;3.27;1.57;;;11.80;99.90;;;;;;4976042;28;20225;-86
2022/10/31 04:17:33;;;;;;;3.40;1.83;;;11.80;99.90;;;;;;4976239;28;20668;-84
2022/10/31 04:20:05;;;;;;;3.20;1.60;;;11.80;99.90;;;;;;4975920;28;20210;-84
2022/10/31 04:22:38;;;;;;;3.33;1.73;;;11.80;99.90;;;;;;4975093;28;20222;-85
2022/10/31 04:25:10;;;;;;;2.23;1.57;;;11.80;99.90;;;;;;4975554;28;20211;-84
2022/10/31 04:27:41;;;;;;;2.27;1.37;;;11.80;99.90;;;;;;4976189;28;20217;-86
2022/10/31 04:30:13;;;;;;;2.53;1.60;;;11.70;99.90;;;;;;4981111;28;20206;-85
2022/10/31 04:32:44;;;;;;;2.57;1.60;;;11.70;99.90;;;;;;4993132;28;20210;-85
2022/10/31 04:35:15;;;;;;;2.53;1.70;;;11.70;99.90;;;;;;4995567;28;20206;-85
2022/10/31 04:37:49;;;;;;;1.80;1.70;;;11.70;99.90;;;;;;4995271;28;20221;-84
2022/10/31 04:40:20;;;;;;;1.90;1.67;;;11.60;99.90;;;;;;4995459;28;20217;-85
2022/10/31 04:42:51;;;;;;;2.43;1.87;;;11.60;99.90;;;;;;4994196;28;20239;-84
2022/10/31 04:45:22;;;;;;;1.90;1.33;;;11.60;99.90;;;;;;4995245;28;20639;-86
2022/10/31 04:47:53;;;;;;;2.30;1.53;;;11.60;99.90;;;;;;4995323;28;20202;-84
2022/10/31 04:50:24;;;;;;;3.23;1.63;;;11.60;99.90;;;;;;4994775;28;20213;-85
2022/10/31 04:52:58;;;;;;;2.30;1.70;;;11.60;99.90;;;;;;4992701;28;20209;-85
2022/10/31 04:55:29;;;;;;;3.37;1.70;;;11.60;99.90;;;;;;4994606;28;20218;-85
2022/10/31 04:58:00;;;;;;;2.60;1.77;;;11.60;99.90;;;;;;4994964;28;20224;-85
2022/10/31 05:00:31;;;;;;;1.87;1.57;;;11.60;99.90;;;;;;4994678;28;20210;-83
2022/10/31 05:03:03;;;;;;;3.20;1.77;;;11.60;99.90;;;;;;4993597;28;20202;-85
2022/10/31 05:05:34;;;;;;;1.77;1.40;;;11.60;99.90;;;;;;4996805;28;20206;-84
2022/10/31 05:08:07;;;;;;;2.67;1.47;;;11.60;99.90;;;;;;4994179;28;20229;-85
2022/10/31 05:10:39;;;;;;;2.20;1.80;;;11.60;99.90;;;;;;4978686;28;20207;-85
2022/10/31 05:13:10;;;;;;;3.70;1.60;;;11.60;99.90;;;;;;4974218;28;20211;-85
2022/10/31 05:15:41;;;;;;;2.43;1.60;;;11.60;99.90;;;;;;4977975;28;20203;-85
2022/10/31 05:18:12;;;;;;;2.93;1.40;;;11.60;99.90;;;;;;4974681;28;20210;-85
2022/10/31 05:20:43;;;;;;;2.00;1.80;;;11.60;99.90;;;;;;4977290;28;20219;-85
2022/10/31 05:23:16;;;;;;;2.13;1.30;;;11.60;99.90;;;;;;4975748;28;20683;-85
2022/10/31 05:25:48;;;;;;;1.53;1.43;;;11.60;99.90;;;;;;4977394;28;20205;-85
2022/10/31 05:28:19;;;;;;;2.97;1.57;;;11.60;99.90;;;;;;4974740;28;20223;-84
2022/10/31 05:30:51;;;;;;;2.37;1.53;;;11.60;99.90;;;;;;4989951;28;20214;-84
2022/10/31 05:33:22;;;;;;;2.53;1.30;;;11.60;99.90;;;;;;4995317;28;20217;-83
2022/10/31 05:35:53;;;;;;;3.70;1.30;;;11.60;99.90;;;;;;4993586;28;20206;-85
2022/10/31 05:38:26;;;;;;;2.10;1.50;;;11.60;99.90;;;;;;4993231;28;20221;-83
2022/10/31 05:41:00;;;;;;;2.10;1.60;;;11.60;99.90;;;;;;4974375;28;20593;-84
2022/10/31 05:43:31;;;;;;;3.10;1.33;;;11.60;99.90;;;;;;4972714;28;20218;-84
2022/10/31 05:46:03;;;;;;;2.80;1.40;;;11.60;99.90;;;;;;4974640;28;20222;-83
2022/10/31 05:48:34;;;;;;;2.67;1.57;;;11.60;99.90;;;;;;4973957;28;20214;-84
2022/10/31 05:51:05;;;;;;;2.17;1.73;;;11.60;99.90;;;;;;4973873;28;20250;-85
2022/10/31 05:53:38;;;;;;;4.03;1.60;;;11.60;99.90;;;;;;4973020;28;20207;-84
2022/10/31 05:56:10;;;;;;;3.77;1.83;;;11.60;99.90;;;;;;4993360;28;20197;-84
2022/10/31 05:58:41;;;;;;;3.10;1.53;;;11.50;99.90;;;;;;5012634;28;20205;-84
2022/10/31 06:01:12;;;;;;;2.20;1.60;;;11.50;99.90;;;;;;4996414;28;20214;-84
2022/10/31 06:03:43;;;;;;;1.73;1.50;;;11.60;99.90;;;;;;4992009;28;20206;-84
2022/10/31 06:06:14;;;;;;;2.23;1.70;;;11.60;99.90;;;;;;4993110;28;20823;-85
2022/10/31 06:08:47;;;;;;;2.33;1.90;;;11.60;99.90;;;;;;4992990;28;20632;-84
2022/10/31 06:11:18;;;;;;;4.83;1.80;;;11.60;99.90;;;;;;4993063;28;20294;-84
2022/10/31 06:13:49;;;;;;;3.07;1.60;;;11.50;99.90;;;;;;4992186;28;20643;-83
2022/10/31 06:16:20;;;;;;;3.80;2.33;;;11.50;99.90;;;;;;4992754;28;20210;-84
2022/10/31 06:18:51;;;;;;;2.20;2.00;;;11.60;99.90;;;;;;4992562;28;20210;-84
2022/10/31 06:21:22;;;;;;;4.03;2.17;;;11.60;99.90;;;;;;4992765;28;20257;-83
2022/10/31 06:23:56;;;;;;;2.97;2.50;;;11.60;99.90;;;;;;4991878;28;20237;-83
2022/10/31 06:26:27;;;;;;;4.90;2.60;;;11.60;99.90;;;;;;4991298;28;20290;-83
2022/10/31 06:28:59;;;;;;;2.80;2.40;;;11.60;99.90;;;;;;4991770;28;20214;-83
2022/10/31 06:31:33;;;;;;;6.90;2.70;;;11.60;99.90;;;;;;4991570;28;20289;-84
2022/10/31 06:34:05;;;;;;;7.90;2.77;;;11.60;99.90;;;;;;4991083;28;20632;-83
2022/10/31 06:36:36;;;;;;;17.30;3.13;;;11.60;99.90;;;;;;4992411;28;20209;-84
2022/10/31 06:39:09;;;;;;;10.70;2.83;;;11.60;99.90;;;;;;4990828;28;20297;-84
2022/10/31 06:41:41;;;;;;;5.67;2.63;;;11.60;99.90;;;;;;4992370;28;20210;-83
2022/10/31 06:44:12;;;;;;;9.50;2.50;;;11.60;99.90;;;;;;4992642;28;20217;-83
2022/10/31 06:46:43;;;;;;;3.37;2.57;;;11.60;99.90;;;;;;4992766;28;20544;-84
2022/10/31 06:49:13;;;;;;;19.07;3.43;;;11.50;99.90;;;;;;4993933;28;20210;-83
2022/10/31 06:51:48;;;;;;;13.40;2.67;;;11.50;99.90;;;;;;4992041;28;20206;-84
2022/10/31 06:54:21;;;;;;;4.33;2.20;;;11.50;99.90;;;;;;4992692;28;20206;-84
2022/10/31 06:56:53;;;;;;;2.50;2.10;;;11.50;99.90;;;;;;4997667;28;20206;-83
2022/10/31 06:59:25;;;;;;;1.87;1.50;;;11.40;99.90;;;;;;4996053;28;20206;-83
2022/10/31 07:01:56;;;;;;;1.57;1.47;;;11.40;99.90;;;;;;4993901;28;20211;-84
2022/10/31 07:04:27;;;;;;;1.50;1.40;;;11.40;99.90;;;;;;4995934;28;20245;-84
2022/10/31 07:06:59;;;;;;;2.60;1.40;;;11.30;99.90;;;;;;4996057;28;20207;-83
2022/10/31 07:09:33;;;;;;;7.13;1.80;;;11.20;99.90;;;;;;4996193;28;20214;-84
2022/10/31 07:12:04;;;;;;;3.03;1.10;;;11.20;99.90;;;;;;4995180;28;20552;-84
2022/10/31 07:14:35;;;;;;;1.30;1.10;;;11.20;99.90;;;;;;4995773;28;20202;-83
2022/10/31 07:17:06;;;;;;;1.20;1.10;;;11.20;99.90;;;;;;4995840;28;20571;-84
2022/10/31 07:19:38;;;;;;;1.20;1.10;;;11.10;99.90;;;;;;4995900;28;20639;-83
2022/10/31 07:22:10;;;;;;;1.37;0.93;;;11.10;99.90;;;;;;4995089;28;20198;-84
2022/10/31 07:24:43;;;;;;;0.70;0.70;;;11.10;99.90;;;;;;4996153;28;20257;-83
2022/10/31 07:27:14;;;;;;;0.83;0.73;;;11.00;99.90;;;;;;4995690;28;20726;-82
2022/10/31 07:29:46;;;;;;;0.77;0.70;;;11.00;99.90;;;;;;4995264;28;20210;-83
2022/10/31 07:32:17;;;;;;;2.67;1.23;;;11.00;99.90;;;;;;4994601;28;20221;-84
2022/10/31 07:34:48;;;;;;;2.60;1.17;;;11.00;99.90;;;;;;4995240;28;20575;-84
2022/10/31 07:37:19;;;;;;;2.13;1.10;;;11.00;99.90;;;;;;4995322;28;20211;-82
2022/10/31 07:39:52;;;;;;;3.70;1.30;;;11.00;99.90;;;;;;4994297;28;20222;-83
2022/10/31 07:42:23;;;;;;;6.23;1.40;;;10.90;99.90;;;;;;4994383;28;20221;-83
2022/10/31 07:44:54;;;;;;;4.27;1.00;;;11.00;99.90;;;;;;4995724;28;20257;-84
2022/10/31 07:47:27;;;;;;;2.13;1.10;;;10.90;99.90;;;;;;4995427;28;20273;-83
2022/10/31 07:49:58;;;;;;;2.23;1.00;;;10.90;99.90;;;;;;4995226;28;20209;-83
2022/10/31 07:52:29;;;;;;;1.80;0.90;;;10.90;99.90;;;;;;4994382;28;20693;-84
2022/10/31 07:55:03;;;;;;;0.77;0.70;;;10.80;99.90;;;;;;4995158;28;20213;-84
2022/10/31 07:57:36;;;;;;;1.27;0.77;;;10.70;99.90;;;;;;4995031;28;20571;-83
2022/10/31 08:00:10;;;;;;;1.37;0.90;;;10.60;99.90;;;;;;4997253;28;20252;-84
2022/10/31 08:02:41;;;;;;;0.80;0.60;;;10.70;99.90;;;;;;4994119;28;20206;-84
2022/10/31 08:05:12;;;;;;;2.50;0.70;;;10.60;99.90;;;;;;4994538;28;20329;-83
2022/10/31 08:07:43;;;;;;;3.90;0.80;;;10.60;99.90;;;;;;4990850;28;20318;-83
2022/10/31 08:10:17;;;;;;;6.00;0.80;;;10.60;99.90;;;;;;4986078;28;20226;-83
2022/10/31 08:12:48;;;;;;;2.07;0.90;;;10.50;99.90;;;;;;4974957;28;20706;-83
2022/10/31 08:15:19;;;;;;;0.93;0.80;;;10.50;99.90;;;;;;4975343;28;20218;-83
2022/10/31 08:17:50;;;;;;;1.40;0.97;;;10.50;99.90;;;;;;4975814;28;20211;-83
2022/10/31 08:20:22;;;;;;;2.00;0.90;;;10.50;99.90;;;;;;4975586;28;20221;-84
2022/10/31 08:22:58;;;;;;;1.47;0.93;;;10.40;99.90;;;;;;4974525;28;20213;-83
2022/10/31 08:25:32;;;;;;;2.73;1.23;;;10.40;99.90;;;;;;4973830;28;20741;-83
2022/10/31 08:28:09;;;;;;;0.90;0.80;;;10.40;99.90;;;;;;4994237;28;20202;-82
2022/10/31 08:30:40;;;;;;;3.43;0.80;;;10.30;99.90;;;;;;4994178;28;20690;-83
2022/10/31 08:33:13;;;;;;;1.70;0.90;;;10.30;99.90;;;;;;4993505;28;20214;-83
2022/10/31 08:35:45;;;;;;;2.13;0.80;;;10.20;99.90;;;;;;4995036;28;20239;-83
2022/10/31 08:38:16;;;;;;;1.30;0.97;;;10.10;99.90;;;;;;4997140;28;20225;-83
2022/10/31 08:40:51;;;;;;;1.77;1.20;;;10.10;99.90;;;;;;4975129;28;20203;-84
2022/10/31 08:43:22;;;;;;;1.10;1.00;;;10.10;99.90;;;;;;4973994;28;20206;-84
2022/10/31 08:45:54;;;;;;;3.67;1.20;;;10.10;99.90;;;;;;4977259;28;20322;-83
2022/10/31 08:48:26;;;;;;;2.97;1.00;;;10.00;99.90;;;;;;4976931;28;20704;-83
2022/10/31 08:50:59;;;;;;;3.47;1.60;;;10.00;99.90;;;;;;4975771;28;20203;-84
2022/10/31 08:53:30;;;;;;;1.83;1.20;;;10.00;99.90;;;;;;4974085;28;20211;-83
2022/10/31 08:56:03;;;;;;;1.37;1.00;;;10.00;99.90;;;;;;4975474;28;20663;-83
2022/10/31 08:58:34;;;;;;;1.87;1.27;;;10.00;99.90;;;;;;4975110;28;20238;-84
2022/10/31 09:01:09;;;;;;;1.83;1.10;;;9.90;99.90;;;;;;4991619;28;20213;-84
2022/10/31 09:03:41;;;;;;;2.13;1.27;;;10.00;99.90;;;;;;4994920;28;20210;-83
2022/10/31 09:06:12;;;;;;;2.33;1.30;;;9.90;99.90;;;;;;5010074;28;20265;-85
2022/10/31 09:08:43;;;;;;;4.10;1.40;;;9.80;99.90;;;;;;5013849;28;20194;-84
2022/10/31 09:11:16;;;;;;;2.90;1.30;;;9.90;99.90;;;;;;5012218;28;20306;-85
2022/10/31 09:13:48;;;;;;;2.53;1.20;;;9.80;99.90;;;;;;4998290;28;20217;-85
2022/10/31 09:16:19;;;;;;;3.37;1.53;;;9.90;99.90;;;;;;4994435;28;20203;-84
2022/10/31 09:18:50;;;;;;;2.47;1.00;;;9.90;99.90;;;;;;4994516;28;20233;-85
2022/10/31 09:21:22;;;;;;;8.97;1.27;;;9.80;99.90;;;;;;4994854;28;20202;-84
2022/10/31 09:23:53;;;;;;;5.97;0.97;;;9.80;99.90;;;;;;4990469;28;20218;-83
2022/10/31 09:26:26;;;;;;;3.43;1.30;;;9.90;99.90;;;;;;4992271;28;20237;-83
2022/10/31 09:28:58;;;;;;;2.30;1.13;;;9.90;99.90;;;;;;4992016;28;20232;-83
2022/10/31 09:31:29;;;;;;;1.27;0.90;;;9.80;99.90;;;;;;4992182;28;20253;-83
2022/10/31 09:34:00;;;;;;;4.23;1.10;;;9.80;99.90;;;;;;4990047;28;20265;-82
2022/10/31 09:36:31;;;;;;;2.70;1.10;;;9.80;99.90;;;;;;4990977;28;20663;-82
2022/10/31 09:39:02;;;;;;;3.73;1.40;;;9.80;99.90;;;;;;4992802;28;20225;-83
2022/10/31 09:41:48;;;;;;;4.10;1.20;;;9.80;99.90;;;;;;4993115;28;20210;-84
2022/10/31 09:44:35;;;;;;;3.27;0.97;;;9.80;99.90;;;;;;4993137;28;20216;-84
2022/10/31 09:47:16;;;;;;;5.43;1.00;;;9.80;99.90;;;;;;4992950;28;20260;-83
2022/10/31 09:50:04;;;;;;;2.93;1.03;;;9.80;99.90;;;;;;4992878;28;20206;-83
2022/10/31 09:52:37;;;;;;;2.57;1.00;;;9.80;99.90;;;;;;4990840;28;20207;-83
2022/10/31 09:55:15;;;;;;;4.13;1.00;;;9.80;99.90;;;;;;4993101;28;20325;-83
2022/10/31 09:57:49;;;;;;;1.60;1.07;;;9.70;99.90;;;;;;4993138;28;20289;-83
2022/10/31 10:00:23;;;;;;;4.33;1.23;;;9.70;99.90;;;;;;4983767;28;20218;-85
2022/10/31 10:02:59;;;;;;;2.93;1.00;;;9.70;99.90;;;;;;4994755;28;20677;-84
2022/10/31 10:05:36;;;;;;;1.67;1.13;;;9.80;99.90;;;;;;5012521;28;20259;-84
2022/10/31 10:08:12;;;;;;;5.20;1.17;;;9.80;99.90;;;;;;5012629;28;20209;-84
2022/10/31 10:10:52;;;;;;;2.87;1.30;;;9.70;99.90;;;;;;4993485;28;20217;-84
2022/10/31 10:13:41;;;;;;;2.70;1.30;;;9.80;99.90;;;;;;4992068;28;20553;-84
2022/10/31 10:16:32;;;;;;;2.03;1.30;;;9.80;99.90;;;;;;4992941;28;20225;-84
2022/10/31 10:19:17;;;;;;;1.87;1.00;;;9.80;99.90;;;;;;4992849;28;20309;-83
2022/10/31 10:21:53;;;;;;;1.43;1.17;;;9.80;99.90;;;;;;4993034;28;20276;-84
2022/10/31 10:24:46;;;;;;;3.17;1.40;;;9.80;99.90;;;;;;4992700;28;20204;-84
2022/10/31 10:27:24;;;;;;;1.73;1.23;;;9.70;99.90;;;;;;4992968;28;20242;-85
2022/10/31 10:30:06;;;;;;;2.17;1.03;;;9.70;99.90;;;;;;4996291;28;20213;-83
2022/10/31 10:32:45;;;;;;;3.80;1.10;;;9.70;99.90;;;;;;4995916;28;20217;-84
2022/10/31 10:35:26;;;;;;;3.00;1.30;;;9.60;99.90;;;;;;4997026;28;20210;-84
2022/10/31 10:38:04;;;;;;;2.73;1.30;;;9.70;99.90;;;;;;4996707;28;20213;-84
2022/10/31 10:40:35;;;;;;;3.10;1.20;;;9.70;99.90;;;;;;4996871;28;20671;-84
2022/10/31 10:43:25;;;;;;;3.73;1.20;;;9.60;99.90;;;;;;4996205;28;20679;-85
2022/10/31 10:49:20;;;;;;;2.93;1.40;;;9.60;99.90;;;;;;4996798;28;20573;-83
2022/10/31 10:51:58;;;;;;;1.83;1.10;;;9.50;99.90;;;;;;4997173;28;20208;-84
2022/10/31 10:54:58;;;;;;;2.30;1.40;;;9.50;99.90;;;;;;4997647;28;20664;-84
2022/10/31 10:57:53;;;;;;;2.40;1.43;;;9.50;99.90;;;;;;4996148;28;20224;-83
2022/10/31 11:00:27;;;;;;;1.77;1.13;;;9.50;99.90;;;;;;4996487;28;20221;-83
2022/10/31 11:03:01;;;;;;;2.60;1.30;;;9.50;99.90;;;;;;4994653;28;20217;-83
2022/10/31 11:05:37;;;;;;;3.07;1.10;;;9.50;99.90;;;;;;4996262;28;20210;-84
2022/10/31 11:08:09;;;;;;;1.23;1.13;;;9.50;99.90;;;;;;4996065;28;20242;-83
2022/10/31 11:10:40;;;;;;;1.47;1.10;;;9.50;99.90;;;;;;4977779;28;20229;-84
2022/10/31 11:13:26;;;;;;;1.53;1.10;;;9.50;99.90;;;;;;4975751;28;20588;-84
2022/10/31 11:16:02;;;;;;;2.20;1.10;;;9.50;99.90;;;;;;4977150;28;20206;-85
2022/10/31 11:18:39;;;;;;;1.50;0.87;;;9.60;99.90;;;;;;4976550;28;20210;-83
2022/10/31 11:21:22;;;;;;;1.40;1.30;;;9.50;99.90;;;;;;4976985;28;20214;-85
2022/10/31 11:24:05;;;;;;;1.57;1.20;;;9.60;99.90;;;;;;4976022;28;20691;-84
2022/10/31 11:26:37;;;;;;;1.53;1.07;;;9.60;99.90;;;;;;4976795;28;20211;-83
2022/10/31 11:29:15;;;;;;;1.03;0.93;;;9.60;99.90;;;;;;4976710;28;20686;-84
2022/10/31 11:31:48;;;;;;;1.20;0.80;;;9.60;99.90;;;;;;4976612;28;20219;-84
2022/10/31 11:34:30;;;;;;;1.43;0.93;;;9.60;99.90;;;;;;4974561;28;20207;-84
2022/10/31 11:37:10;;;;;;;1.50;1.10;;;9.60;99.90;;;;;;4976188;28;20229;-84
2022/10/31 11:39:45;;;;;;;1.30;1.10;;;9.60;99.90;;;;;;4987082;28;20202;-84
2022/10/31 11:42:16;;;;;;;1.00;0.90;;;9.70;99.90;;;;;;4994406;28;20209;-83
2022/10/31 11:44:47;;;;;;;1.40;0.90;;;9.70;99.90;;;;;;4994866;28;20219;-83
2022/10/31 11:47:19;;;;;;;2.00;0.90;;;9.80;99.90;;;;;;4997295;28;20222;-84
2022/10/31 11:49:52;;;;;;;1.73;1.00;;;9.80;99.90;;;;;;4995332;28;20237;-84
2022/10/31 11:52:26;;;;;;;1.17;0.93;;;9.70;99.90;;;;;;4994390;28;20690;-85
2022/10/31 11:55:00;;;;;;;1.13;1.03;;;9.60;99.90;;;;;;4995296;28;20218;-84
2022/10/31 11:57:33;;;;;;;1.30;1.00;;;9.70;99.90;;;;;;4997561;28;20205;-84
2022/10/31 12:00:22;;;;;;;2.47;0.90;;;9.80;99.90;;;;;;4989204;28;20207;-83
2022/10/31 12:03:06;;;;;;;1.20;0.90;;;9.80;99.90;;;;;;4973771;28;20644;-84
2022/10/31 12:05:41;;;;;;;2.23;1.00;;;9.80;99.90;;;;;;4977247;28;20210;-84
2022/10/31 12:08:14;;;;;;;0.93;0.83;;;9.80;99.90;;;;;;4985165;28;20233;-84
2022/10/31 12:10:57;;;;;;;1.50;0.90;;;9.80;99.90;;;;;;4996266;28;20245;-84
2022/10/31 12:13:36;;;;;;;1.67;1.10;;;9.90;99.90;;;;;;4994472;28;20209;-84
2022/10/31 12:16:14;;;;;;;1.37;0.90;;;9.90;99.90;;;;;;4995359;28;20203;-85
2022/10/31 12:18:58;;;;;;;2.57;1.00;;;10.00;99.90;;;;;;4995097;28;20210;-84
2022/10/31 12:21:55;;;;;;;1.10;1.00;;;10.00;99.90;;;;;;4995402;28;20213;-84
2022/10/31 12:24:37;;;;;;;1.97;1.20;;;10.10;99.90;;;;;;4994984;28;20567;-83
2022/10/31 12:27:19;;;;;;;1.83;1.00;;;10.20;99.90;;;;;;4995229;28;20213;-85
2022/10/31 12:30:18;;;;;;;1.30;1.20;;;10.30;99.90;;;;;;4994765;28;20677;-84
2022/10/31 12:33:05;;;;;;;1.80;1.13;;;10.40;99.90;;;;;;4994069;28;20212;-84
2022/10/31 12:35:49;;;;;;;1.90;1.13;;;10.50;99.90;;;;;;4995330;28;20221;-85
2022/10/31 12:38:46;;;;;;;1.93;1.40;;;10.60;99.90;;;;;;4995093;28;20210;-85
2022/10/31 12:41:38;;;;;;;1.37;1.20;;;10.70;99.90;;;;;;4994876;28;20214;-84
2022/10/31 12:44:15;;;;;;;1.53;1.40;;;10.70;99.90;;;;;;4993930;28;20542;-84
2022/10/31 12:47:00;;;;;;;2.33;1.40;;;10.80;99.90;;;;;;4994882;28;20214;-83
2022/10/31 12:49:48;;;;;;;2.30;1.50;;;10.80;99.90;;;;;;4994740;28;20202;-85
2022/10/31 12:52:34;;;;;;;1.37;1.27;;;10.80;99.90;;;;;;4992366;28;20213;-84
2022/10/31 12:58:13;;;;;;;3.20;1.57;;;10.90;99.90;;;;;;5014262;27;3981238;-84
2022/10/31 13:00:48;;;;;;;2.37;1.80;;;10.90;99.90;;;;;;5130557;28;20213;-85
2022/10/31 13:03:30;;;;;;;3.37;2.57;;;11.00;99.90;;;;;;5129836;28;20548;-84
2022/10/31 13:06:06;;;;;;;2.10;1.80;;;10.90;99.90;;;;;;5130514;28;20201;-84
2022/10/31 13:08:44;;;;;;;3.93;1.93;;;11.00;99.90;;;;;;5130785;28;20212;-84
2022/10/31 13:11:21;;;;;;;4.43;1.87;;;11.00;99.90;;;;;;5130908;28;20240;-83
2022/10/31 13:14:00;;;;;;;2.90;1.80;;;11.00;99.90;;;;;;5130116;28;20235;-84
2022/10/31 13:16:36;;;;;;;2.17;1.93;;;11.00;99.90;;;;;;5130629;28;20602;-85
2022/10/31 13:19:14;;;;;;;2.20;1.97;;;11.00;99.90;;;;;;5130391;28;20207;-84
2022/10/31 13:21:54;;;;;;;3.00;2.07;;;11.00;99.90;;;;;;5133203;28;20259;-86
2022/10/31 13:24:34;;;;;;;2.10;1.77;;;11.00;99.90;;;;;;5131140;28;20213;-84
2022/10/31 13:27:14;;;;;;;2.63;1.90;;;11.00;99.90;;;;;;5131164;28;20202;-85
2022/10/31 13:29:58;;;;;;;3.00;1.90;;;10.90;99.90;;;;;;5130195;28;20201;-85
2022/10/31 13:32:38;;;;;;;3.53;1.80;;;10.90;99.90;;;;;;5112948;28;20650;-83
2022/10/31 13:35:18;;;;;;;3.23;1.83;;;10.90;99.90;;;;;;5130302;28;20204;-84